createdAt,value
2022-09-04T00:00:56.011Z,0
2022-09-04T00:01:56.016Z,0
2022-09-04T00:02:56.586Z,0
2022-09-04T00:03:56.786Z,0
2022-09-04T00:04:56.837Z,0
2022-09-04T00:05:58.786Z,0
2022-09-04T00:06:56.035Z,0
2022-09-04T00:07:56.059Z,0
2022-09-04T00:08:56.588Z,0
2022-09-04T00:09:56.033Z,0
2022-09-04T00:10:59.070Z,0
2022-09-04T00:11:56.030Z,0
2022-09-04T00:12:56.048Z,0
2022-09-04T00:13:56.064Z,0
2022-09-04T00:14:56.049Z,0
2022-09-04T00:15:56.300Z,0
2022-09-04T00:16:59.262Z,0
2022-09-04T00:17:56.057Z,0
2022-09-04T00:18:56.051Z,0
2022-09-04T00:19:56.039Z,0
2022-09-04T00:20:56.052Z,0
2022-09-04T00:21:58.819Z,0
2022-09-04T00:22:56.059Z,0
2022-09-04T00:23:56.068Z,0
2022-09-04T00:24:56.132Z,0
2022-09-04T00:25:56.074Z,0
2022-09-04T00:26:56.071Z,0
2022-09-04T00:27:59.084Z,0
2022-09-04T00:28:55.913Z,0
2022-09-04T00:29:56.058Z,0
2022-09-04T00:30:56.515Z,0
2022-09-04T00:31:56.083Z,0
2022-09-04T00:32:59.744Z,0
2022-09-04T00:33:56.069Z,0
2022-09-04T00:34:56.073Z,0
2022-09-04T00:35:56.100Z,0
2022-09-04T00:36:57.258Z,0
2022-09-04T00:37:56.087Z,0
2022-09-04T00:38:59.130Z,0
2022-09-04T00:39:56.580Z,0
2022-09-04T00:40:56.074Z,0
2022-09-04T00:41:56.080Z,0
2022-09-04T00:42:56.476Z,0
2022-09-04T00:43:59.102Z,0
2022-09-04T00:44:57.618Z,0
2022-09-04T00:45:56.376Z,0
2022-09-04T00:46:56.091Z,0
2022-09-04T00:47:56.136Z,0
2022-09-04T00:48:55.985Z,0
2022-09-04T00:49:59.120Z,0
2022-09-04T00:50:56.116Z,0
2022-09-04T00:51:56.100Z,0
2022-09-04T00:53:05.983Z,0
2022-09-04T00:53:56.105Z,0
2022-09-04T00:54:58.879Z,0
2022-09-04T00:55:56.113Z,0
2022-09-04T00:56:56.101Z,0
2022-09-04T00:57:56.133Z,0
2022-09-04T00:58:56.114Z,0
2022-09-04T00:59:56.184Z,0
2022-09-04T01:00:56.487Z,0
2022-09-04T01:01:56.927Z,0
2022-09-04T01:02:56.684Z,0
2022-09-04T01:03:57.536Z,0
2022-09-04T01:04:56.228Z,0
2022-09-04T01:05:56.344Z,0
2022-09-04T01:06:56.254Z,0
2022-09-04T01:07:56.146Z,0
2022-09-04T01:09:02.876Z,0
2022-09-04T01:09:56.134Z,0
2022-09-04T01:10:56.142Z,0
2022-09-04T01:11:56.131Z,0
2022-09-04T01:12:56.156Z,0
2022-09-04T01:13:56.424Z,0
2022-09-04T01:14:59.864Z,0
2022-09-04T01:15:56.155Z,0
2022-09-04T01:16:56.525Z,0
2022-09-04T01:17:56.170Z,0
2022-09-04T01:18:56.152Z,0
2022-09-04T01:19:56.159Z,0
2022-09-04T01:20:56.149Z,0
2022-09-04T01:21:59.994Z,0
2022-09-04T01:22:56.271Z,0
2022-09-04T01:23:56.247Z,0
2022-09-04T01:24:56.182Z,0
2022-09-04T01:25:56.174Z,0
2022-09-04T01:26:56.152Z,0
2022-09-04T01:27:56.177Z,0
2022-09-04T01:28:56.167Z,0
2022-09-04T01:29:56.174Z,0
2022-09-04T01:30:56.167Z,0
2022-09-04T01:31:56.523Z,0
2022-09-04T01:32:59.979Z,0
2022-09-04T01:33:56.167Z,0
2022-09-04T01:34:56.174Z,0
2022-09-04T01:35:56.182Z,0
2022-09-04T01:36:57.945Z,0
2022-09-04T01:37:58.946Z,0
2022-09-04T01:38:56.177Z,0
2022-09-04T01:39:56.474Z,0
2022-09-04T01:40:56.188Z,0
2022-09-04T01:41:56.180Z,0
2022-09-04T01:42:56.514Z,0
2022-09-04T01:43:56.212Z,0
2022-09-04T01:44:56.205Z,0
2022-09-04T01:45:56.450Z,0
2022-09-04T01:46:56.201Z,0
2022-09-04T01:47:56.185Z,0
2022-09-04T01:48:59.345Z,0
2022-09-04T01:49:56.232Z,0
2022-09-04T01:50:56.202Z,0
2022-09-04T01:51:56.199Z,0
2022-09-04T01:52:56.204Z,0
2022-09-04T01:53:56.773Z,0
2022-09-04T01:54:56.213Z,0
2022-09-04T01:55:56.209Z,0
2022-09-04T01:56:57.189Z,0
2022-09-04T01:57:56.216Z,0
2022-09-04T01:58:56.241Z,0
2022-09-04T02:00:00.538Z,0
2022-09-04T02:01:00.221Z,0
2022-09-04T02:01:56.531Z,0
2022-09-04T02:02:59.864Z,0
2022-09-04T02:03:56.241Z,0
2022-09-04T02:04:56.222Z,0
2022-09-04T02:05:56.229Z,0
2022-09-04T02:06:56.223Z,0
2022-09-04T02:07:56.227Z,0
2022-09-04T02:08:56.245Z,0
2022-09-04T02:10:00.621Z,0
2022-09-04T02:10:59.304Z,0
2022-09-04T02:12:01.515Z,0
2022-09-04T02:12:56.237Z,0
2022-09-04T02:13:56.257Z,0
2022-09-04T02:14:56.242Z,0
2022-09-04T02:15:56.433Z,0
2022-09-04T02:16:56.362Z,0
2022-09-04T02:17:56.279Z,0
2022-09-04T02:18:56.351Z,0
2022-09-04T02:19:56.256Z,0
2022-09-04T02:20:56.247Z,0
2022-09-04T02:21:59.341Z,0
2022-09-04T02:22:56.251Z,0
2022-09-04T02:23:56.421Z,0
2022-09-04T02:24:56.263Z,0
2022-09-04T02:25:56.296Z,0
2022-09-04T02:26:59.292Z,0
2022-09-04T02:27:56.268Z,0
2022-09-04T02:28:56.286Z,0
2022-09-04T02:29:56.309Z,0
2022-09-04T02:31:01.293Z,0
2022-09-04T02:31:56.602Z,0
2022-09-04T02:32:59.050Z,0
2022-09-04T02:33:56.289Z,0
2022-09-04T02:34:56.282Z,0
2022-09-04T02:35:56.281Z,0
2022-09-04T02:36:57.186Z,0
2022-09-04T02:37:59.194Z,0
2022-09-04T02:38:56.300Z,0
2022-09-04T02:39:56.691Z,0
2022-09-04T02:40:56.336Z,0
2022-09-04T02:41:56.320Z,0
2022-09-04T02:42:56.296Z,0
2022-09-04T02:43:59.221Z,0
2022-09-04T02:44:56.559Z,0
2022-09-04T02:45:56.303Z,0
2022-09-04T02:46:56.677Z,0
2022-09-04T02:47:56.306Z,0
2022-09-04T02:48:57.841Z,0
2022-09-04T02:49:56.303Z,0
2022-09-04T02:50:56.319Z,0
2022-09-04T02:51:56.304Z,0
2022-09-04T02:52:56.325Z,0
2022-09-04T02:53:57.260Z,0
2022-09-04T02:54:59.063Z,0
2022-09-04T02:55:56.319Z,0
2022-09-04T02:56:56.332Z,0
2022-09-04T02:57:59.195Z,0
2022-09-04T02:58:56.357Z,0
2022-09-04T02:59:59.385Z,0
2022-09-04T03:00:56.828Z,0
2022-09-04T03:01:58.268Z,0
2022-09-04T03:02:56.319Z,0
2022-09-04T03:03:56.339Z,0
2022-09-04T03:04:56.395Z,0
2022-09-04T03:05:59.497Z,0
2022-09-04T03:06:56.348Z,0
2022-09-04T03:07:56.372Z,0
2022-09-04T03:09:00.092Z,0
2022-09-04T03:09:56.366Z,0
2022-09-04T03:10:59.339Z,0
2022-09-04T03:11:56.355Z,0
2022-09-04T03:12:56.463Z,0
2022-09-04T03:13:56.418Z,0
2022-09-04T03:14:56.369Z,0
2022-09-04T03:15:56.431Z,0
2022-09-04T03:16:59.640Z,0
2022-09-04T03:17:58.449Z,0
2022-09-04T03:18:56.378Z,0
2022-09-04T03:19:56.790Z,0
2022-09-04T03:20:56.361Z,0
2022-09-04T03:21:59.417Z,0
2022-09-04T03:22:56.362Z,0
2022-09-04T03:23:56.374Z,0
2022-09-04T03:24:56.589Z,0
2022-09-04T03:25:56.371Z,0
2022-09-04T03:26:56.366Z,0
2022-09-04T03:27:56.384Z,0
2022-09-04T03:28:56.404Z,0
2022-09-04T03:29:56.375Z,0
2022-09-04T03:30:56.381Z,0
2022-09-04T03:31:57.460Z,0
2022-09-04T03:32:56.396Z,0
2022-09-04T03:33:56.694Z,0
2022-09-04T03:34:57.548Z,0
2022-09-04T03:35:57.727Z,0
2022-09-04T03:36:56.383Z,0
2022-09-04T03:37:56.346Z,0
2022-09-04T03:38:57.897Z,0
2022-09-04T03:39:56.797Z,0
2022-09-04T03:40:56.429Z,0
2022-09-04T03:41:56.401Z,0
2022-09-04T03:42:56.400Z,0
2022-09-04T03:43:56.395Z,0
2022-09-04T03:44:59.312Z,0
2022-09-04T03:45:56.414Z,0
2022-09-04T03:46:56.787Z,0
2022-09-04T03:47:56.470Z,0
2022-09-04T03:48:59.268Z,0
2022-09-04T03:49:56.473Z,0
2022-09-04T03:50:56.475Z,0
2022-09-04T03:51:56.716Z,0
2022-09-04T03:52:56.415Z,0
2022-09-04T03:53:56.444Z,0
2022-09-04T03:54:56.913Z,0
2022-09-04T03:55:56.423Z,0
2022-09-04T03:56:56.416Z,0
2022-09-04T03:57:56.419Z,0
2022-09-04T03:58:56.426Z,0
2022-09-04T03:59:59.277Z,0
2022-09-04T04:00:56.741Z,0
2022-09-04T04:01:56.435Z,0
2022-09-04T04:02:56.790Z,0
2022-09-04T04:03:56.439Z,0
2022-09-04T04:04:57.606Z,0
2022-09-04T04:05:56.439Z,0
2022-09-04T04:06:56.445Z,0
2022-09-04T04:07:56.431Z,0
2022-09-04T04:08:56.277Z,0
2022-09-04T04:09:56.467Z,0
2022-09-04T04:10:59.466Z,0
2022-09-04T04:11:56.442Z,0
2022-09-04T04:12:56.832Z,0
2022-09-04T04:13:56.298Z,0
2022-09-04T04:14:56.478Z,0
2022-09-04T04:15:59.751Z,0
2022-09-04T04:17:06.142Z,0
2022-09-04T04:17:56.479Z,0
2022-09-04T04:18:56.299Z,0
2022-09-04T04:19:56.472Z,4
2022-09-04T04:20:56.505Z,0
2022-09-04T04:21:56.470Z,0
2022-09-04T04:22:56.467Z,4
2022-09-04T04:23:56.473Z,4
2022-09-04T04:24:56.492Z,0
2022-09-04T04:25:59.509Z,4
2022-09-04T04:27:01.368Z,0
2022-09-04T04:27:58.599Z,4
2022-09-04T04:28:56.470Z,4
2022-09-04T04:29:56.496Z,4
2022-09-04T04:30:56.520Z,4
2022-09-04T04:31:56.639Z,4
2022-09-04T04:32:56.489Z,8
2022-09-04T04:33:56.490Z,4
2022-09-04T04:34:59.539Z,8
2022-09-04T04:35:56.506Z,8
2022-09-04T04:36:56.487Z,8
2022-09-04T04:38:04.004Z,8
2022-09-04T04:38:56.610Z,12
2022-09-04T04:39:56.826Z,12
2022-09-04T04:40:56.759Z,12
2022-09-04T04:41:56.547Z,12
2022-09-04T04:42:56.498Z,16
2022-09-04T04:43:56.514Z,16
2022-09-04T04:44:56.512Z,20
2022-09-04T04:45:56.497Z,20
2022-09-04T04:46:56.812Z,20
2022-09-04T04:47:56.499Z,24
2022-09-04T04:48:59.659Z,24
2022-09-04T04:49:56.526Z,28
2022-09-04T04:50:56.510Z,28
2022-09-04T04:51:56.643Z,28
2022-09-04T04:52:56.510Z,32
2022-09-04T04:53:59.968Z,36
2022-09-04T04:54:56.574Z,36
2022-09-04T04:55:56.516Z,36
2022-09-04T04:56:56.523Z,40
2022-09-04T04:57:56.498Z,40
2022-09-04T04:58:56.551Z,40
2022-09-04T04:59:58.379Z,44
2022-09-04T05:00:57.260Z,44
2022-09-04T05:01:57.155Z,48
2022-09-04T05:02:56.851Z,52
2022-09-04T05:03:56.534Z,56
2022-09-04T05:04:59.578Z,60
2022-09-04T05:05:56.545Z,56
2022-09-04T05:06:56.536Z,60
2022-09-04T05:07:56.535Z,64
2022-09-04T05:08:56.544Z,72
2022-09-04T05:09:56.559Z,72
2022-09-04T05:10:59.391Z,76
2022-09-04T05:11:56.544Z,80
2022-09-04T05:12:56.547Z,84
2022-09-04T05:13:59.521Z,88
2022-09-04T05:14:56.580Z,92
2022-09-04T05:16:23.565Z,100
2022-09-04T05:17:05.200Z,108
2022-09-04T05:17:57.007Z,108
2022-09-04T05:18:56.562Z,112
2022-09-04T05:19:59.231Z,116
2022-09-04T05:20:56.578Z,116
2022-09-04T05:21:59.655Z,120
2022-09-04T05:22:56.560Z,120
2022-09-04T05:23:56.566Z,124
2022-09-04T05:25:03.352Z,124
2022-09-04T05:25:56.570Z,124
2022-09-04T05:27:00.175Z,120
2022-09-04T05:27:56.600Z,124
2022-09-04T05:28:56.573Z,128
2022-09-04T05:29:56.590Z,144
2022-09-04T05:30:56.875Z,156
2022-09-04T05:31:56.571Z,160
2022-09-04T05:32:59.610Z,164
2022-09-04T05:33:57.229Z,168
2022-09-04T05:34:56.603Z,172
2022-09-04T05:35:59.806Z,172
2022-09-04T05:36:57.801Z,172
2022-09-04T05:38:00.222Z,180
2022-09-04T05:38:56.620Z,172
2022-09-04T05:39:57.023Z,136
2022-09-04T05:40:56.589Z,140
2022-09-04T05:41:56.590Z,140
2022-09-04T05:42:56.598Z,140
2022-09-04T05:43:59.349Z,144
2022-09-04T05:44:56.624Z,184
2022-09-04T05:45:56.637Z,180
2022-09-04T05:46:59.026Z,192
2022-09-04T05:47:56.690Z,176
2022-09-04T05:48:59.388Z,184
2022-09-04T05:49:56.628Z,176
2022-09-04T05:50:56.617Z,184
2022-09-04T05:51:56.479Z,208
2022-09-04T05:52:56.621Z,220
2022-09-04T05:54:01.048Z,232
2022-09-04T05:54:56.783Z,232
2022-09-04T05:55:56.630Z,228
2022-09-04T05:56:56.620Z,236
2022-09-04T05:57:56.614Z,236
2022-09-04T05:58:56.617Z,240
2022-09-04T05:59:56.653Z,244
2022-09-04T06:00:56.711Z,256
2022-09-04T06:01:59.205Z,280
2022-09-04T06:02:57.001Z,292
2022-09-04T06:03:56.629Z,280
2022-09-04T06:04:56.656Z,272
2022-09-04T06:05:56.964Z,200
2022-09-04T06:06:56.636Z,196
2022-09-04T06:07:56.649Z,220
2022-09-04T06:08:56.653Z,304
2022-09-04T06:09:56.665Z,332
2022-09-04T06:10:56.651Z,360
2022-09-04T06:11:56.666Z,392
2022-09-04T06:12:56.649Z,444
2022-09-04T06:13:56.654Z,424
2022-09-04T06:14:56.683Z,380
2022-09-04T06:15:59.930Z,440
2022-09-04T06:16:56.661Z,456
2022-09-04T06:17:56.663Z,420
2022-09-04T06:18:56.654Z,424
2022-09-04T06:19:56.680Z,716
2022-09-04T06:20:56.667Z,780
2022-09-04T06:21:56.664Z,824
2022-09-04T06:23:05.748Z,568
2022-09-04T06:23:56.670Z,632
2022-09-04T06:24:56.690Z,692
2022-09-04T06:25:56.739Z,852
2022-09-04T06:26:59.506Z,908
2022-09-04T06:27:56.661Z,776
2022-09-04T06:28:56.668Z,976
2022-09-04T06:29:56.644Z,1008
2022-09-04T06:30:56.986Z,1088
2022-09-04T06:31:59.701Z,1132
2022-09-04T06:32:57.130Z,1120
2022-09-04T06:33:56.723Z,1156
2022-09-04T06:34:56.708Z,1224
2022-09-04T06:35:56.538Z,1272
2022-09-04T06:36:57.556Z,1348
2022-09-04T06:37:59.557Z,1364
2022-09-04T06:38:56.687Z,1440
2022-09-04T06:39:57.278Z,1500
2022-09-04T06:40:56.690Z,1556
2022-09-04T06:41:56.811Z,1592
2022-09-04T06:42:59.890Z,1692
2022-09-04T06:44:01.696Z,1696
2022-09-04T06:44:56.721Z,1744
2022-09-04T06:46:02.467Z,1760
2022-09-04T06:46:56.949Z,1324
2022-09-04T06:47:56.884Z,1840
2022-09-04T06:48:56.708Z,1528
2022-09-04T06:49:56.766Z,2056
2022-09-04T06:50:56.947Z,2032
2022-09-04T06:51:56.731Z,1496
2022-09-04T06:52:59.123Z,2156
2022-09-04T06:53:59.815Z,2264
2022-09-04T06:54:56.707Z,2320
2022-09-04T06:55:56.724Z,2392
2022-09-04T06:56:58.623Z,2404
2022-09-04T06:57:56.729Z,2548
2022-09-04T06:59:01.705Z,2496
2022-09-04T06:59:56.579Z,1664
2022-09-04T07:00:56.735Z,2708
2022-09-04T07:01:57.476Z,2868
2022-09-04T07:02:57.228Z,2952
2022-09-04T07:03:57.156Z,3076
2022-09-04T07:04:59.539Z,2648
2022-09-04T07:05:56.776Z,2944
2022-09-04T07:06:56.760Z,3112
2022-09-04T07:07:56.748Z,2280
2022-09-04T07:08:56.756Z,3556
2022-09-04T07:10:03.520Z,3316
2022-09-04T07:10:57.238Z,2780
2022-09-04T07:11:56.762Z,3492
2022-09-04T07:12:56.793Z,3420
2022-09-04T07:13:59.259Z,3512
2022-09-04T07:14:56.754Z,3580
2022-09-04T07:15:59.870Z,3308
2022-09-04T07:16:56.763Z,3488
2022-09-04T07:18:05.665Z,3396
2022-09-04T07:18:56.775Z,3604
2022-09-04T07:19:56.770Z,3620
2022-09-04T07:20:56.796Z,3648
2022-09-04T07:21:56.791Z,3644
2022-09-04T07:22:56.773Z,3672
2022-09-04T07:24:02.553Z,3684
2022-09-04T07:24:56.799Z,3632
2022-09-04T07:25:56.818Z,3620
2022-09-04T07:26:59.579Z,3584
2022-09-04T07:27:56.781Z,3604
2022-09-04T07:28:56.720Z,3520
2022-09-04T07:29:56.783Z,3556
2022-09-04T07:30:56.841Z,3744
2022-09-04T07:31:59.876Z,4128
2022-09-04T07:32:56.794Z,3548
2022-09-04T07:33:56.821Z,3564
2022-09-04T07:34:56.795Z,3732
2022-09-04T07:35:56.935Z,3648
2022-09-04T07:36:56.797Z,3544
2022-09-04T07:37:59.577Z,3220
2022-09-04T07:38:57.623Z,3656
2022-09-04T07:39:58.183Z,3592
2022-09-04T07:40:56.824Z,3344
2022-09-04T07:41:56.813Z,3256
2022-09-04T07:42:59.451Z,3292
2022-09-04T07:44:04.256Z,2956
2022-09-04T07:44:56.827Z,3348
2022-09-04T07:45:57.073Z,3188
2022-09-04T07:46:56.827Z,2964
2022-09-04T07:47:56.815Z,2400
2022-09-04T07:48:59.826Z,2016
2022-09-04T07:49:56.819Z,2408
2022-09-04T07:50:57.089Z,3020
2022-09-04T07:52:00.291Z,2536
2022-09-04T07:52:59.229Z,2784
2022-09-04T07:53:59.789Z,3124
2022-09-04T07:54:56.861Z,2336
2022-09-04T07:55:57.332Z,2740
2022-09-04T07:56:56.851Z,2920
2022-09-04T07:57:56.848Z,3108
2022-09-04T07:58:56.673Z,1544
2022-09-04T07:59:59.957Z,1428
2022-09-04T08:00:56.961Z,1128
2022-09-04T08:01:57.252Z,812
2022-09-04T08:02:56.843Z,724
2022-09-04T08:04:01.099Z,684
2022-09-04T08:04:59.977Z,656
2022-09-04T08:05:56.869Z,632
2022-09-04T08:06:56.842Z,624
2022-09-04T08:07:56.867Z,616
2022-09-04T08:08:56.870Z,628
2022-09-04T08:09:56.858Z,632
2022-09-04T08:11:00.045Z,640
2022-09-04T08:11:56.856Z,660
2022-09-04T08:12:57.689Z,700
2022-09-04T08:13:56.866Z,748
2022-09-04T08:14:56.903Z,1368
2022-09-04T08:16:01.723Z,888
2022-09-04T08:17:00.151Z,912
2022-09-04T08:17:56.877Z,1120
2022-09-04T08:18:56.874Z,1248
2022-09-04T08:19:56.713Z,1308
2022-09-04T08:20:56.899Z,1124
2022-09-04T08:21:56.886Z,1368
2022-09-04T08:22:58.414Z,1216
2022-09-04T08:23:56.896Z,980
2022-09-04T08:24:56.890Z,928
2022-09-04T08:25:56.935Z,884
2022-09-04T08:26:56.905Z,840
2022-09-04T08:27:56.895Z,900
2022-09-04T08:28:58.153Z,1000
2022-09-04T08:29:56.891Z,1192
2022-09-04T08:30:57.237Z,984
2022-09-04T08:31:56.905Z,1004
2022-09-04T08:32:56.897Z,1092
2022-09-04T08:33:56.904Z,1836
2022-09-04T08:34:56.908Z,1672
2022-09-04T08:35:56.925Z,2052
2022-09-04T08:36:56.920Z,1956
2022-09-04T08:37:56.899Z,1868
2022-09-04T08:38:56.921Z,1772
2022-09-04T08:39:57.283Z,1704
2022-09-04T08:40:59.178Z,1660
2022-09-04T08:41:56.920Z,1644
2022-09-04T08:42:59.998Z,1644
2022-09-04T08:43:56.913Z,1624
2022-09-04T08:44:56.923Z,1608
2022-09-04T08:45:57.066Z,1604
2022-09-04T08:46:59.703Z,1596
2022-09-04T08:47:59.743Z,1592
2022-09-04T08:48:56.937Z,1572
2022-09-04T08:49:56.825Z,1576
2022-09-04T08:50:57.429Z,1580
2022-09-04T08:51:58.810Z,1572
2022-09-04T08:52:59.608Z,1556
2022-09-04T08:53:59.771Z,1564
2022-09-04T08:54:56.951Z,1568
2022-09-04T08:55:56.947Z,1568
2022-09-04T08:56:57.012Z,1568
2022-09-04T08:57:56.778Z,1572
2022-09-04T08:59:01.402Z,1576
2022-09-04T08:59:56.643Z,1572
2022-09-04T09:00:57.069Z,1580
2022-09-04T09:01:57.061Z,1564
2022-09-04T09:02:57.309Z,1564
2022-09-04T09:03:56.972Z,1576
2022-09-04T09:04:59.717Z,1584
2022-09-04T09:05:56.967Z,1580
2022-09-04T09:06:56.971Z,1568
2022-09-04T09:07:57.002Z,1572
2022-09-04T09:08:57.715Z,1572
2022-09-04T09:09:59.737Z,1568
2022-09-04T09:10:56.971Z,1568
2022-09-04T09:11:56.984Z,1572
2022-09-04T09:12:56.965Z,1568
2022-09-04T09:14:02.272Z,1568
2022-09-04T09:14:56.976Z,1564
2022-09-04T09:15:56.974Z,1564
2022-09-04T09:16:57.465Z,1568
2022-09-04T09:17:56.988Z,1564
2022-09-04T09:18:56.981Z,1560
2022-09-04T09:19:57.425Z,1556
2022-09-04T09:20:59.763Z,1556
2022-09-04T09:21:57.077Z,1540
2022-09-04T09:22:57.108Z,1544
2022-09-04T09:23:56.991Z,1548
2022-09-04T09:24:57.196Z,1548
2022-09-04T09:25:57.073Z,1544
2022-09-04T09:26:57.034Z,1556
2022-09-04T09:27:57.032Z,1532
2022-09-04T09:28:57.156Z,1528
2022-09-04T09:29:57.015Z,1524
2022-09-04T09:30:57.329Z,1512
2022-09-04T09:32:06.046Z,1520
2022-09-04T09:32:57.012Z,1520
2022-09-04T09:33:57.021Z,1520
2022-09-04T09:34:57.028Z,1516
2022-09-04T09:35:57.037Z,1520
2022-09-04T09:36:57.103Z,1516
2022-09-04T09:37:59.090Z,1520
2022-09-04T09:38:57.065Z,1516
2022-09-04T09:39:57.345Z,1508
2022-09-04T09:41:01.051Z,1496
2022-09-04T09:41:56.982Z,1500
2022-09-04T09:42:59.813Z,1364
2022-09-04T09:43:57.042Z,1424
2022-09-04T09:44:57.055Z,1404
2022-09-04T09:45:57.456Z,1444
2022-09-04T09:46:57.051Z,1444
2022-09-04T09:47:58.045Z,1444
2022-09-04T09:48:57.087Z,1444
2022-09-04T09:49:57.255Z,1440
2022-09-04T09:50:57.036Z,1444
2022-09-04T09:51:57.070Z,1440
2022-09-04T09:52:56.890Z,1436
2022-09-04T09:54:00.091Z,1432
2022-09-04T09:54:57.070Z,1376
2022-09-04T09:55:57.095Z,1424
2022-09-04T09:57:01.155Z,1424
2022-09-04T09:57:57.070Z,1424
2022-09-04T09:59:00.125Z,1420
2022-09-04T09:59:57.179Z,1408
2022-09-04T10:00:57.255Z,1412
2022-09-04T10:01:57.177Z,1412
2022-09-04T10:02:57.180Z,1420
2022-09-04T10:03:57.075Z,1380
2022-09-04T10:05:00.183Z,1340
2022-09-04T10:05:57.091Z,1100
2022-09-04T10:06:58.174Z,828
2022-09-04T10:07:57.812Z,868
2022-09-04T10:08:57.132Z,1440
2022-09-04T10:09:59.898Z,1384
2022-09-04T10:10:57.087Z,1384
2022-09-04T10:11:57.113Z,1324
2022-09-04T10:12:57.093Z,1380
2022-09-04T10:13:57.110Z,1380
2022-09-04T10:14:57.396Z,1388
2022-09-04T10:16:00.145Z,1368
2022-09-04T10:16:57.674Z,1376
2022-09-04T10:17:57.140Z,1376
2022-09-04T10:18:57.239Z,1360
2022-09-04T10:19:57.125Z,1376
2022-09-04T10:21:00.181Z,1380
2022-09-04T10:21:57.131Z,1380
2022-09-04T10:22:57.134Z,1204
2022-09-04T10:23:57.118Z,388
2022-09-04T10:24:57.126Z,1320
2022-09-04T10:25:57.129Z,1384
2022-09-04T10:26:59.901Z,1380
2022-09-04T10:27:57.213Z,1384
2022-09-04T10:28:57.207Z,1384
2022-09-04T10:29:57.159Z,1384
2022-09-04T10:30:57.451Z,1380
2022-09-04T10:32:00.198Z,1372
2022-09-04T10:32:57.153Z,1380
2022-09-04T10:33:57.145Z,1380
2022-09-04T10:34:57.196Z,1396
2022-09-04T10:35:57.157Z,1400
2022-09-04T10:36:59.137Z,1400
2022-09-04T10:38:00.189Z,1400
2022-09-04T10:38:57.140Z,1396
2022-09-04T10:39:57.547Z,1400
2022-09-04T10:40:58.550Z,1400
2022-09-04T10:41:57.153Z,1400
2022-09-04T10:43:00.212Z,1396
2022-09-04T10:43:57.351Z,1384
2022-09-04T10:44:57.317Z,1392
2022-09-04T10:45:57.549Z,1080
2022-09-04T10:46:57.281Z,1080
2022-09-04T10:47:57.198Z,1072
2022-09-04T10:48:57.179Z,1064
2022-09-04T10:49:57.496Z,1068
2022-09-04T10:51:00.076Z,1188
2022-09-04T10:51:57.051Z,1188
2022-09-04T10:52:57.171Z,1192
2022-09-04T10:53:56.999Z,1192
2022-09-04T10:54:57.168Z,1188
2022-09-04T10:55:58.060Z,1184
2022-09-04T10:56:57.180Z,1184
2022-09-04T10:57:57.677Z,1184
2022-09-04T10:58:57.313Z,1176
2022-09-04T11:00:03.392Z,1180
2022-09-04T11:00:57.466Z,1184
2022-09-04T11:01:57.358Z,1184
2022-09-04T11:02:57.048Z,1192
2022-09-04T11:03:57.281Z,1212
2022-09-04T11:04:57.187Z,1204
2022-09-04T11:05:58.917Z,1200
2022-09-04T11:06:57.198Z,1200
2022-09-04T11:07:57.213Z,1204
2022-09-04T11:08:57.289Z,1196
2022-09-04T11:10:00.375Z,1196
2022-09-04T11:10:57.195Z,1200
2022-09-04T11:11:57.199Z,1192
2022-09-04T11:12:57.222Z,1200
2022-09-04T11:13:58.376Z,1200
2022-09-04T11:14:57.053Z,1180
2022-09-04T11:15:57.228Z,1180
2022-09-04T11:17:01.919Z,1184
2022-09-04T11:17:57.697Z,1184
2022-09-04T11:18:57.294Z,1192
2022-09-04T11:19:57.218Z,1200
2022-09-04T11:21:00.404Z,1196
2022-09-04T11:21:57.296Z,1196
2022-09-04T11:22:57.228Z,1040
2022-09-04T11:23:57.361Z,1188
2022-09-04T11:24:57.238Z,1116
2022-09-04T11:26:00.074Z,940
2022-09-04T11:26:57.094Z,1096
2022-09-04T11:27:57.228Z,940
2022-09-04T11:28:57.223Z,956
2022-09-04T11:29:57.079Z,960
2022-09-04T11:30:56.772Z,1092
2022-09-04T11:32:00.509Z,1036
2022-09-04T11:32:57.261Z,1084
2022-09-04T11:33:57.248Z,1088
2022-09-04T11:34:57.099Z,900
2022-09-04T11:35:57.082Z,280
2022-09-04T11:37:00.391Z,676
2022-09-04T11:38:02.340Z,448
2022-09-04T11:38:58.337Z,256
2022-09-04T11:39:57.545Z,724
2022-09-04T11:40:57.256Z,1072
2022-09-04T11:41:57.284Z,272
2022-09-04T11:43:00.052Z,268
2022-09-04T11:43:57.272Z,1096
2022-09-04T11:44:57.134Z,1112
2022-09-04T11:45:57.294Z,1072
2022-09-04T11:46:57.261Z,1060
2022-09-04T11:48:00.043Z,1052
2022-09-04T11:48:57.189Z,1052
2022-09-04T11:49:57.033Z,1044
2022-09-04T11:50:57.121Z,1044
2022-09-04T11:51:57.113Z,1032
2022-09-04T11:52:57.298Z,1028
2022-09-04T11:53:57.140Z,1024
2022-09-04T11:54:57.136Z,1024
2022-09-04T11:55:59.686Z,1044
2022-09-04T11:56:57.136Z,1016
2022-09-04T11:57:57.138Z,996
2022-09-04T11:59:00.108Z,992
2022-09-04T11:59:57.316Z,1000
2022-09-04T12:00:57.333Z,992
2022-09-04T12:01:57.335Z,1020
2022-09-04T12:02:57.294Z,1008
2022-09-04T12:03:57.322Z,1012
2022-09-04T12:04:57.308Z,984
2022-09-04T12:05:57.322Z,960
2022-09-04T12:06:57.307Z,984
2022-09-04T12:07:56.995Z,1000
2022-09-04T12:08:57.155Z,996
2022-09-04T12:10:00.375Z,996
2022-09-04T12:10:57.309Z,988
2022-09-04T12:11:57.698Z,972
2022-09-04T12:12:57.332Z,984
2022-09-04T12:13:57.194Z,1016
2022-09-04T12:14:58.474Z,944
2022-09-04T12:15:57.324Z,964
2022-09-04T12:16:57.690Z,968
2022-09-04T12:17:57.338Z,952
2022-09-04T12:18:57.367Z,948
2022-09-04T12:19:57.336Z,948
2022-09-04T12:21:00.445Z,944
2022-09-04T12:21:57.340Z,944
2022-09-04T12:22:57.173Z,936
2022-09-04T12:23:57.200Z,936
2022-09-04T12:24:57.337Z,940
2022-09-04T12:26:00.651Z,948
2022-09-04T12:27:06.639Z,952
2022-09-04T12:27:57.350Z,948
2022-09-04T12:28:57.399Z,932
2022-09-04T12:29:57.359Z,936
2022-09-04T12:30:57.354Z,932
2022-09-04T12:32:01.117Z,924
2022-09-04T12:32:57.370Z,912
2022-09-04T12:33:57.388Z,908
2022-09-04T12:34:57.367Z,852
2022-09-04T12:35:57.364Z,892
2022-09-04T12:37:00.987Z,900
2022-09-04T12:42:12.033Z,896
2022-09-04T12:43:00.138Z,872
2022-09-04T12:43:57.387Z,892
2022-09-04T12:44:57.389Z,908
2022-09-04T12:45:58.459Z,908
2022-09-04T12:46:57.229Z,904
2022-09-04T12:48:04.023Z,900
2022-09-04T12:48:57.412Z,900
2022-09-04T12:49:57.428Z,904
2022-09-04T12:50:57.395Z,888
2022-09-04T12:51:57.436Z,900
2022-09-04T12:52:57.401Z,896
2022-09-04T12:54:02.961Z,896
2022-09-04T12:54:57.410Z,900
2022-09-04T12:55:57.412Z,904
2022-09-04T12:56:57.421Z,896
2022-09-04T12:57:57.407Z,904
2022-09-04T12:58:59.313Z,904
2022-09-04T12:59:57.410Z,900
2022-09-04T13:00:58.159Z,900
2022-09-04T13:01:59.007Z,912
2022-09-04T13:02:57.422Z,912
2022-09-04T13:03:57.444Z,908
2022-09-04T13:05:00.537Z,900
2022-09-04T13:06:00.087Z,892
2022-09-04T13:07:00.383Z,896
2022-09-04T13:07:57.450Z,896
2022-09-04T13:08:57.455Z,900
2022-09-04T13:10:00.793Z,908
2022-09-04T13:10:57.566Z,264
2022-09-04T13:11:57.432Z,284
2022-09-04T13:12:57.446Z,188
2022-09-04T13:13:57.461Z,204
2022-09-04T13:14:57.454Z,840
2022-09-04T13:15:58.589Z,852
2022-09-04T13:17:01.739Z,848
2022-09-04T13:17:57.448Z,836
2022-09-04T13:18:57.469Z,840
2022-09-04T13:19:57.460Z,260
2022-09-04T13:20:57.468Z,216
2022-09-04T13:21:57.454Z,220
2022-09-04T13:23:00.041Z,252
2022-09-04T13:24:00.237Z,532
2022-09-04T13:24:57.461Z,836
2022-09-04T13:25:57.475Z,840
2022-09-04T13:26:58.119Z,852
2022-09-04T13:27:57.581Z,384
2022-09-04T13:28:58.465Z,276
2022-09-04T13:30:03.414Z,304
2022-09-04T13:30:58.944Z,280
2022-09-04T13:31:57.448Z,280
2022-09-04T13:32:57.513Z,300
2022-09-04T13:33:58.634Z,876
2022-09-04T13:34:57.478Z,580
2022-09-04T13:35:57.473Z,644
2022-09-04T13:37:00.334Z,808
2022-09-04T13:37:57.551Z,856
2022-09-04T13:38:57.514Z,312
2022-09-04T13:39:57.808Z,276
2022-09-04T13:40:57.497Z,256
2022-09-04T13:41:57.497Z,256
2022-09-04T13:42:59.469Z,780
2022-09-04T13:43:57.634Z,480
2022-09-04T13:44:57.500Z,428
2022-09-04T13:45:57.510Z,360
2022-09-04T13:46:57.874Z,764
2022-09-04T13:48:00.591Z,832
2022-09-04T13:48:57.536Z,780
2022-09-04T13:50:03.045Z,740
2022-09-04T13:50:57.345Z,796
2022-09-04T13:51:57.515Z,820
2022-09-04T13:53:00.624Z,312
2022-09-04T13:53:57.568Z,220
2022-09-04T13:54:57.559Z,208
2022-09-04T13:55:57.532Z,204
2022-09-04T13:56:57.551Z,228
2022-09-04T13:57:57.633Z,328
2022-09-04T13:59:00.580Z,784
2022-09-04T13:59:57.564Z,812
2022-09-04T14:00:57.907Z,808